Hlavní strana
METAR-TAF:

METAR-TAF

Letiště :

Kassel, Německo

zeměpisná šířka: 51-24N, zeměpisná délka: 009-23E, výška: 277 m

Aktuální stav počasí

Zpráva byla vytvořena před 29 minutami, v 09:50 UTC
Severozápadní vítr 5 kt, proměnlivý mezi jihojihozápadním a severním
Teplota 21°C
Vlhkost vzduchu 49%
Tlak 1022 hPa
Viditelnost 10 km a více
Polojasno ve výšce 4600 ft

METAR: EDVK 180950Z 31005KT 210V010 9999 SCT046 21/10 Q1022

Čas: 12:19 (10:19 UTC)

Předpověď počasí

Zpráva byla vytvořena před 2 hodinami a 19 minutami, v 08:00 UTC
Předpověď platná od 18 v 09 UTC do 18 v 18 UTC
Severozápadní vítr 5 kt
Viditelnost 10 km a více
Polojasno ve výšce 4000 ft

TAF: EDVK 180800Z 1809/1818 32005KT 9999 SCT040

Stav a předpovědi počasí z více než 4 000 letišť (zprávy METAR a TAF).

Červené a žluté tečky na mapě představují dostupné meteorologické stanice.

Když kurzor umístíte na tečku, zobrazí se název stanice.

Pak kliknutím zobrazíte stav a předpověď počasí.

Chcete-li změnit mapu, kliknutím na zelené tlačítko se znaménkem +mapu přiblížíte, kliknutím na zelené tlačítko se znaménkem – mapu oddálíte a kliknutím na zelené šipky přejdete na sousední mapy.


METAR-TAF: